Time;durP1;ratioP1;P1;durP2;ratioP2;P2;SDS_P1;SDS_P2;PMS_P1;PMS_P2;Temp;Humidity;BMP_temperature;BMP_pressure;BME280_temperature;BME280_humidity;BME280_pressure;Samples;Min_cycle;Max_cycle;Signal;HPM_P1;HPM_P2
2024/03/17 00:01:00;;;;;;;;;;;;;;;6.27;100.00;97157.16;5066154;28;19940;-74
2024/03/17 00:03:26;;;;;;;;;;;;;;;6.25;100.00;97153.91;5066053;28;19935;-75
2024/03/17 00:05:58;;;;;;;;;;;;;;;6.23;100.00;97155.88;5066003;28;19968;-76
2024/03/17 00:08:24;;;;;;;;;;;;;;;6.22;100.00;97159.50;5066521;28;19958;-81
2024/03/17 00:10:51;;;;;;;;;;;;;;;6.20;100.00;97156.25;5065945;28;19946;-81
2024/03/17 00:13:17;;;;;;;;;;;;;;;6.20;100.00;97160.66;5066447;28;19939;-81
2024/03/17 00:15:43;;;;;;;;;;;;;;;6.19;100.00;97167.63;5065547;28;19945;-80
2024/03/17 00:18:10;;;;;;;;;;;;;;;6.16;100.00;97165.38;5066336;28;20002;-80
2024/03/17 00:20:36;;;;;;;;;;;;;;;6.14;100.00;97156.94;5065796;28;19993;-81
2024/03/17 00:23:03;;;;;;;;;;;;;;;6.13;100.00;97173.53;5065738;28;19981;-73
2024/03/17 00:25:29;;;;;;;;;;;;;;;6.10;100.00;97161.66;5066228;28;19941;-69
2024/03/17 00:27:57;;;;;;;;;;;;;;;6.09;100.00;97169.66;5066097;28;19951;-72
2024/03/17 00:30:23;;;;;;;;;;;;;;;6.08;100.00;97162.81;5065569;28;19941;-73
2024/03/17 00:32:49;;;;;;;;;;;;;;;6.06;100.00;97165.59;5066360;28;19963;-73
2024/03/17 00:35:20;;;;;;;;;;;;;;;6.04;100.00;97164.16;5065306;28;19971;-73
2024/03/17 00:37:49;;;;;;;;;;;;;;;6.02;100.00;97156.50;5066049;28;19945;-73
2024/03/17 00:40:19;;;;;;;;;;;;;;;6.01;100.00;97160.09;5065414;28;19951;-73
2024/03/17 00:42:44;;;;;;;;;;;;;;;6.00;100.00;97155.06;5065062;28;19935;-71
2024/03/17 00:45:11;;;;;;;;;;;;;;;5.99;100.00;97151.66;5065266;28;20244;-68
2024/03/17 00:47:37;;;;;;;;;;;;;;;5.99;100.00;97156.84;5065180;28;19957;-69
2024/03/17 00:50:04;;;;;;;;;;;;;;;5.98;100.00;97157.00;5065184;28;19948;-69
2024/03/17 00:52:30;;;;;;;;;;;;;;;5.98;100.00;97154.41;5065669;28;19939;-69
2024/03/17 00:54:56;;;;;;;;;;;;;;;5.97;100.00;97143.19;5065086;28;19943;-69
2024/03/17 00:57:21;;;;;;;;;;;;;;;5.97;100.00;97142.38;5065063;28;20205;-69
2024/03/17 00:59:47;;;;;;;;;;;;;;;5.97;100.00;97150.19;5065020;28;19944;-69
2024/03/17 01:02:16;;;;;;;;;;;;;;;5.97;100.00;97142.38;5065026;28;20130;-76
2024/03/17 01:04:43;;;;;;;;;;;;;;;5.98;100.00;97144.00;5064915;28;19942;-69
2024/03/17 01:07:09;;;;;;;;;;;;;;;5.99;100.00;97140.44;5064816;28;19956;-69
2024/03/17 01:09:35;;;;;;;;;;;;;;;5.99;100.00;97132.63;5064754;28;19957;-69
2024/03/17 01:12:01;;;;;;;;;;;;;;;6.02;100.00;97140.06;5065329;28;19943;-69
2024/03/17 01:14:27;;;;;;;;;;;;;;;6.04;100.00;97131.09;5064711;28;19941;-70
2024/03/17 01:16:54;;;;;;;;;;;;;;;6.06;100.00;97130.94;5064672;28;19931;-69
2024/03/17 01:19:20;;;;;;;;;;;;;;;6.09;100.00;97138.41;5064630;28;19999;-72
2024/03/17 01:21:46;;;;;;;;;;;;;;;6.07;100.00;97140.38;5064633;28;20108;-69
2024/03/17 01:24:12;;;;;;;;;;;;;;;6.05;100.00;97131.94;5064536;28;19949;-69
2024/03/17 01:26:38;;;;;;;;;;;;;;;6.07;100.00;97132.56;5065248;28;20222;-69
2024/03/17 01:29:04;;;;;;;;;;;;;;;6.08;100.00;97127.16;5064466;28;19976;-69
2024/03/17 01:31:30;;;;;;;;;;;;;;;6.12;100.00;97127.66;5064952;28;19935;-69
2024/03/17 01:33:56;;;;;;;;;;;;;;;6.14;100.00;97111.84;5063783;28;19988;-69
2024/03/17 01:36:22;;;;;;;;;;;;;;;6.18;100.00;97123.56;5064317;28;19950;-69
2024/03/17 01:38:48;;;;;;;;;;;;;;;6.19;100.00;97117.34;5064310;28;19939;-80
2024/03/17 01:41:14;;;;;;;;;;;;;;;6.22;100.00;97117.00;5064235;28;19936;-81
2024/03/17 01:43:40;;;;;;;;;;;;;;;6.24;100.00;97102.03;5063834;28;19946;-80
2024/03/17 01:46:11;;;;;;;;;;;;;;;6.25;100.00;97101.03;5064927;28;19940;-81
2024/03/17 01:48:37;;;;;;;;;;;;;;;6.22;100.00;97093.56;5065019;28;19943;-80
2024/03/17 01:51:03;;;;;;;;;;;;;;;6.20;100.00;97087.72;5064155;28;19941;-81
2024/03/17 01:53:29;;;;;;;;;;;;;;;6.20;100.00;97095.53;5063173;28;19939;-80
2024/03/17 01:55:56;;;;;;;;;;;;;;;6.21;100.00;97092.75;5064128;28;19940;-80
2024/03/17 01:58:25;;;;;;;;;;;;;;;6.23;100.00;97100.38;5064025;28;20125;-72
2024/03/17 02:00:51;;;;;;;;;;;;;;;6.24;100.00;97092.41;5063979;28;19940;-73
2024/03/17 02:03:17;;;;;;;;;;;;;;;6.25;100.00;97088.81;5063988;28;19939;-72
2024/03/17 02:05:44;;;;;;;;;;;;;;;6.26;100.00;97087.84;5063995;28;20124;-72
2024/03/17 02:08:10;;;;;;;;;;;;;;;6.23;100.00;97085.56;5063769;28;19965;-72
2024/03/17 02:10:37;;;;;;;;;;;;;;;6.19;100.00;97083.47;5064396;28;20114;-72
2024/03/17 02:13:05;;;;;;;;;;;;;;;6.18;100.00;97084.47;5063887;28;19937;-72
2024/03/17 02:15:32;;;;;;;;;;;;;;;6.20;100.00;97074.69;5063858;28;19987;-74
2024/03/17 02:17:58;;;;;;;;;;;;;;;6.21;100.00;97073.69;5063902;28;19942;-80
2024/03/17 02:20:54;;;;;;;;;;;;;;;6.22;100.00;97070.13;5063869;28;19934;-80
2024/03/17 02:23:10;;;;;;;;;;;;;;;6.25;100.00;97061.94;5064279;28;19985;-80
2024/03/17 02:25:35;;;;;;;;;;;;;;;6.27;100.00;97071.19;5063856;28;19942;-81
2024/03/17 02:28:02;;;;;;;;;;;;;;;6.29;100.00;97069.25;5063734;28;19952;-81
2024/03/17 02:30:28;;;;;;;;;;;;;;;6.32;100.00;97067.25;5063758;28;19943;-81
2024/03/17 02:32:54;;;;;;;;;;;;;;;6.32;100.00;97068.09;5063765;28;19940;-72
2024/03/17 02:35:26;;;;;;;;;;;;;;;6.34;100.00;97063.53;5063527;28;19961;-68
2024/03/17 02:37:52;;;;;;;;;;;;;;;6.35;100.00;97062.53;5064479;28;19937;-68
2024/03/17 02:40:18;;;;;;;;;;;;;;;6.37;100.00;97063.16;5063607;28;20008;-68
2024/03/17 02:42:45;;;;;;;;;;;;;;;6.37;100.00;97057.94;5064200;28;20127;-68
2024/03/17 02:45:14;;;;;;;;;;;;;;;6.37;100.00;97055.34;5063566;28;19942;-69
2024/03/17 02:47:39;;;;;;;;;;;;;;;6.38;100.00;97050.94;5063500;28;19951;-69
2024/03/17 02:50:06;;;;;;;;;;;;;;;6.38;100.00;97053.53;5064284;28;19947;-69
2024/03/17 02:52:32;;;;;;;;;;;;;;;6.37;100.00;97057.94;5064104;28;19944;-74
2024/03/17 02:54:58;;;;;;;;;;;;;;;6.39;100.00;97055.19;5063516;28;19943;-81
2024/03/17 02:57:24;;;;;;;;;;;;;;;6.38;100.00;97046.53;5063572;28;19934;-81
2024/03/17 02:59:51;;;;;;;;;;;;;;;6.39;100.00;97047.38;5063515;28;19935;-80
2024/03/17 03:02:17;;;;;;;;;;;;;;;6.39;100.00;97060.38;5063987;28;19940;-81
2024/03/17 03:04:43;;;;;;;;;;;;;;;6.39;100.00;97048.16;5063936;28;19948;-80
2024/03/17 03:07:09;;;;;;;;;;;;;;;6.39;100.00;97040.34;5067165;28;19952;-81
2024/03/17 03:09:35;;;;;;;;;;;;;;;6.39;100.00;97048.16;5067665;28;19962;-78
2024/03/17 03:12:04;;;;;;;;;;;;;;;6.40;100.00;97048.97;5067540;28;19978;-72
2024/03/17 03:14:30;;;;;;;;;;;;;;;6.40;100.00;97038.53;5067073;28;19936;-71
2024/03/17 03:16:56;;;;;;;;;;;;;;;6.40;100.00;97041.16;5067040;28;19937;-72
2024/03/17 03:19:21;;;;;;;;;;;;;;;6.42;100.00;97044.38;5066922;28;19933;-71
2024/03/17 03:21:47;;;;;;;;;;;;;;;6.42;100.00;97045.19;5066923;28;19935;-72
2024/03/17 03:24:14;;;;;;;;;;;;;;;6.40;100.00;97036.75;5066869;28;20284;-71
2024/03/17 03:26:40;;;;;;;;;;;;;;;6.41;100.00;97043.59;5066779;28;19966;-72
2024/03/17 03:29:06;;;;;;;;;;;;;;;6.41;100.00;97048.00;5066787;28;19945;-69
2024/03/17 03:31:32;;;;;;;;;;;;;;;6.42;100.00;97036.56;5066817;28;19940;-72
2024/03/17 03:34:01;;;;;;;;;;;;;;;6.42;100.00;97049.59;5065829;28;19973;-72
2024/03/17 03:36:27;;;;;;;;;;;;;;;6.44;100.00;97045.81;5066718;28;19965;-71
2024/03/17 03:38:53;;;;;;;;;;;;;;;6.43;100.00;97041.63;5066644;28;20221;-71
2024/03/17 03:41:19;;;;;;;;;;;;;;;6.45;100.00;97044.06;5065462;28;20131;-72
2024/03/17 03:43:48;;;;;;;;;;;;;;;6.47;100.00;97047.28;5066514;28;19934;-72
2024/03/17 03:46:14;;;;;;;;;;;;;;;6.47;100.00;97039.47;5066464;28;19949;-72
2024/03/17 03:48:39;;;;;;;;;;;;;;;6.48;100.00;97039.28;5066910;28;19958;-80
2024/03/17 03:51:06;;;;;;;;;;;;;;;6.50;100.00;97036.50;5066935;28;20231;-79
2024/03/17 03:53:33;;;;;;;;;;;;;;;6.50;100.00;97031.28;5066913;28;19938;-78
2024/03/17 03:56:01;;;;;;;;;;;;;;;6.50;100.00;97026.06;5066278;28;19935;-78
2024/03/17 03:58:28;;;;;;;;;;;;;;;6.51;100.00;97027.72;5065017;28;19942;-78
2024/03/17 04:00:55;;;;;;;;;;;;;;;6.52;100.00;97024.09;5067009;28;19935;-78
2024/03/17 04:03:22;;;;;;;;;;;;;;;6.53;100.00;97027.50;5066137;28;19963;-78
2024/03/17 04:05:48;;;;;;;;;;;;;;;6.53;100.00;97038.78;5066145;28;19934;-80
2024/03/17 04:08:14;;;;;;;;;;;;;;;6.55;100.00;97033.34;5065957;28;19959;-80
2024/03/17 04:10:40;;;;;;;;;;;;;;;6.55;100.00;97035.97;5066573;28;20246;-81
2024/03/17 04:13:06;;;;;;;;;;;;;;;6.55;100.00;97026.38;5065966;28;19931;-81
2024/03/17 04:15:31;;;;;;;;;;;;;;;6.56;100.00;97025.38;5065985;28;20264;-81
2024/03/17 04:17:57;;;;;;;;;;;;;;;6.56;100.00;97032.38;5065276;28;19954;-80
2024/03/17 04:20:23;;;;;;;;;;;;;;;6.57;100.00;97034.00;5066702;28;20128;-80
2024/03/17 04:22:49;;;;;;;;;;;;;;;6.56;100.00;97030.59;5066481;28;19931;-74
2024/03/17 04:25:15;;;;;;;;;;;;;;;6.57;100.00;97024.38;5065758;28;19941;-73
2024/03/17 04:27:41;;;;;;;;;;;;;;;6.58;100.00;97026.00;5066466;28;19999;-75
2024/03/17 04:30:06;;;;;;;;;;;;;;;6.57;100.00;97024.38;5065678;28;19941;-75
2024/03/17 04:32:33;;;;;;;;;;;;;;;6.58;100.00;97030.41;5065606;28;20006;-75
2024/03/17 04:34:59;;;;;;;;;;;;;;;6.58;100.00;97038.22;5064341;28;20239;-75
2024/03/17 04:37:25;;;;;;;;;;;;;;;6.57;100.00;97034.78;5065529;28;19962;-75
2024/03/17 04:39:51;;;;;;;;;;;;;;;6.59;100.00;97042.44;5065482;28;19940;-75
2024/03/17 04:42:17;;;;;;;;;;;;;;;6.59;100.00;97038.03;5065455;28;20003;-80
2024/03/17 04:44:44;;;;;;;;;;;;;;;6.58;100.00;97035.63;5065941;28;19943;-74
2024/03/17 04:47:11;;;;;;;;;;;;;;;6.58;100.00;97030.41;5066051;28;20018;-74
2024/03/17 04:49:38;;;;;;;;;;;;;;;6.58;100.00;97027.81;5065841;28;19941;-74
2024/03/17 04:52:04;;;;;;;;;;;;;;;6.59;100.00;97032.03;5065229;28;19955;-75
2024/03/17 04:54:33;;;;;;;;;;;;;;;6.59;100.00;97026.81;5064075;28;19945;-74
2024/03/17 04:56:59;;;;;;;;;;;;;;;6.59;100.00;97025.00;5065140;28;19938;-74
2024/03/17 04:59:25;;;;;;;;;;;;;;;6.59;100.00;97025.00;5064009;28;19985;-73
2024/03/17 05:01:52;;;;;;;;;;;;;;;6.60;100.00;97026.63;5065857;28;19942;-68
2024/03/17 05:04:18;;;;;;;;;;;;;;;6.60;100.00;97037.06;5065014;28;19937;-68
2024/03/17 05:06:47;;;;;;;;;;;;;;;6.60;100.00;97031.84;5063810;28;19940;-68
2024/03/17 05:09:13;;;;;;;;;;;;;;;6.59;100.00;97027.59;5064839;28;20144;-68
2024/03/17 05:11:42;;;;;;;;;;;;;;;6.59;100.00;97034.63;5064854;28;19961;-68
2024/03/17 05:14:08;;;;;;;;;;;;;;;6.57;100.00;97032.19;5064772;28;19961;-69
2024/03/17 05:16:34;;;;;;;;;;;;;;;6.56;100.00;97033.19;5064741;28;19944;-68
2024/03/17 05:19:00;;;;;;;;;;;;;;;6.57;100.00;97026.16;5065338;28;20183;-72
2024/03/17 05:21:29;;;;;;;;;;;;;;;6.55;100.00;97025.53;5065225;28;20005;-68
2024/03/17 05:23:56;;;;;;;;;;;;;;;6.54;100.00;97027.34;5064608;28;19946;-68
2024/03/17 05:26:22;;;;;;;;;;;;;;;6.53;100.00;97028.34;5064502;28;19937;-68
2024/03/17 05:28:48;;;;;;;;;;;;;;;6.53;100.00;97033.56;5063579;28;20010;-68
2024/03/17 05:31:16;;;;;;;;;;;;;;;6.52;100.00;97039.75;5064453;28;19947;-69
2024/03/17 05:33:42;;;;;;;;;;;;;;;6.52;100.00;97028.50;5064244;28;19933;-68
2024/03/17 05:36:07;;;;;;;;;;;;;;;6.49;100.00;97027.06;5064956;28;19948;-68
2024/03/17 05:38:33;;;;;;;;;;;;;;;6.49;100.00;97030.50;5064431;28;19946;-78
2024/03/17 05:41:00;;;;;;;;;;;;;;;6.50;100.00;97028.69;5064836;28;19940;-74
2024/03/17 05:43:27;;;;;;;;;;;;;;;6.49;100.00;97020.06;5064291;28;19938;-74
2024/03/17 05:45:53;;;;;;;;;;;;;;;6.50;100.00;97019.06;5064260;28;19937;-74
2024/03/17 05:48:20;;;;;;;;;;;;;;;6.49;100.00;97020.06;5064066;28;19950;-73
2024/03/17 05:50:46;;;;;;;;;;;;;;;6.47;100.00;97014.22;5064163;28;19956;-74
2024/03/17 05:53:12;;;;;;;;;;;;;;;6.48;100.00;97023.63;5064139;28;19937;-74
2024/03/17 05:55:38;;;;;;;;;;;;;;;6.49;100.00;97021.88;5064187;28;19973;-80
2024/03/17 05:58:04;;;;;;;;;;;;;;;6.52;100.00;97024.09;5064592;28;19937;-72
2024/03/17 06:00:30;;;;;;;;;;;;;;;6.54;100.00;97024.75;5064797;28;19979;-72
2024/03/17 06:02:56;;;;;;;;;;;;;;;6.56;100.00;97032.38;5063998;28;19933;-72
2024/03/17 06:05:23;;;;;;;;;;;;;;;6.58;100.00;97033.81;5063944;28;19951;-72
2024/03/17 06:07:48;;;;;;;;;;;;;;;6.61;100.00;97028.25;5064671;28;19951;-72
2024/03/17 06:10:14;;;;;;;;;;;;;;;6.62;100.00;97029.06;5063898;28;19939;-72
2024/03/17 06:12:40;;;;;;;;;;;;;;;6.63;100.00;97026.25;5063948;28;19941;-81
2024/03/17 06:15:06;;;;;;;;;;;;;;;6.67;100.00;97029.34;5063878;28;20189;-82
2024/03/17 06:17:32;;;;;;;;;;;;;;;6.72;100.00;97029.63;5063893;28;19941;-74
2024/03/17 06:19:58;;;;;;;;;;;;;;;6.79;100.00;97029.72;5064335;28;19939;-74
2024/03/17 06:22:24;;;;;;;;;;;;;;;6.83;100.00;97029.16;5063799;28;20013;-74
2024/03/17 06:24:50;;;;;;;;;;;;;;;6.88;100.00;97029.44;5062770;28;19937;-74
2024/03/17 06:27:15;;;;;;;;;;;;;;;6.90;100.00;97027.44;5064213;28;20007;-74
2024/03/17 06:29:42;;;;;;;;;;;;;;;6.95;100.00;97023.50;5063753;28;19975;-74
2024/03/17 06:32:08;;;;;;;;;;;;;;;6.98;100.00;97026.56;5063737;28;19953;-71
2024/03/17 06:34:34;;;;;;;;;;;;;;;6.99;100.00;97046.44;5063798;28;20279;-78
2024/03/17 06:37:00;;;;;;;;;;;;;;;6.99;100.00;97032.56;5063681;28;19938;-79
2024/03/17 06:39:26;;;;;;;;;;;;;;;7.02;100.00;97033.03;5063618;28;19941;-79
2024/03/17 06:41:52;;;;;;;;;;;;;;;7.00;100.00;97035.00;5067729;28;20011;-79
2024/03/17 06:44:18;;;;;;;;;;;;;;;6.99;100.00;97038.63;5067640;28;19941;-79
2024/03/17 06:46:46;;;;;;;;;;;;;;;7.01;100.00;97033.19;5068167;28;19934;-79
2024/03/17 06:49:12;;;;;;;;;;;;;;;7.05;100.00;97034.47;5068036;28;20255;-79
2024/03/17 06:51:38;;;;;;;;;;;;;;;7.12;100.00;97040.59;5067824;28;19936;-70
2024/03/17 06:54:04;;;;;;;;;;;;;;;7.11;100.00;97042.38;5067564;28;19960;-81
2024/03/17 06:56:32;;;;;;;;;;;;;;;7.14;100.00;97036.00;5067987;28;20111;-81
2024/03/17 06:58:58;;;;;;;;;;;;;;;7.18;100.00;97041.66;5067462;28;19942;-81
2024/03/17 07:01:24;;;;;;;;;;;;;;;7.19;100.00;97043.28;5067411;28;19984;-81
2024/03/17 07:03:50;;;;;;;;;;;;;;;7.18;100.00;97046.88;5067603;28;19949;-81
2024/03/17 07:06:15;;;;;;;;;;;;;;;7.09;100.00;97039.13;5067306;28;19948;-82
2024/03/17 07:08:42;;;;;;;;;;;;;;;7.05;100.00;97037.06;5067123;28;20034;-74
2024/03/17 07:11:08;;;;;;;;;;;;;;;7.08;100.00;97042.75;5067185;28;19941;-74
2024/03/17 07:13:35;;;;;;;;;;;;;;;7.10;100.00;97040.75;5067667;28;19935;-74
2024/03/17 07:16:01;;;;;;;;;;;;;;;7.12;100.00;97040.59;5065973;28;20232;-74
2024/03/17 07:18:28;;;;;;;;;;;;;;;7.13;100.00;97033.56;5067018;28;19939;-74
2024/03/17 07:21:02;;;;;;;;;;;;;;;7.08;100.00;97037.53;5067233;28;20093;-74
2024/03/17 07:23:28;;;;;;;;;;;;;;;7.07;100.00;97030.69;5066909;28;19935;-74
2024/03/17 07:25:55;;;;;;;;;;;;;;;7.10;100.00;97026.91;5067136;28;20133;-74
2024/03/17 07:28:21;;;;;;;;;;;;;;;7.17;100.00;97027.81;5066784;28;20144;-81
2024/03/17 07:31:07;;;;;;;;;;;;;;;7.28;100.00;97019.50;5066760;28;19937;-74
2024/03/17 07:33:33;;;;;;;;;;;;;;;7.46;100.00;97021.72;5067117;28;19926;-74
2024/03/17 07:36:02;;;;;;;;;;;;;;;7.79;100.00;97031.72;5067239;28;19933;-74
2024/03/17 07:38:30;;;;;;;;;;;;;;;8.07;100.00;97021.34;5066632;28;19943;-74
2024/03/17 07:40:57;;;;;;;;;;;;;;;8.24;100.00;97019.25;5066635;28;19941;-74
2024/03/17 07:43:23;;;;;;;;;;;;;;;8.37;100.00;97015.13;5066848;28;19942;-74
2024/03/17 07:45:59;;;;;;;;;;;;;;;8.46;100.00;97011.41;5066561;28;19943;-81
2024/03/17 07:48:25;;;;;;;;;;;;;;;8.58;100.00;97009.09;5066650;28;20196;-74
2024/03/17 07:50:58;;;;;;;;;;;;;;;8.65;100.00;97000.28;5066131;28;19935;-72
2024/03/17 07:53:24;;;;;;;;;;;;;;;8.77;100.00;97007.59;5065968;28;19935;-74
2024/03/17 07:56:06;;;;;;;;;;;;;;;8.86;100.00;97002.03;5066914;28;19941;-74
2024/03/17 07:58:33;;;;;;;;;;;;;;;8.92;100.00;96993.41;5066898;28;19929;-74
2024/03/17 08:01:02;;;;;;;;;;;;;;;8.89;100.00;96995.59;5066260;28;19942;-74
2024/03/17 08:03:29;;;;;;;;;;;;;;;8.83;100.00;96997.16;5066231;28;19942;-82
2024/03/17 08:05:55;;;;;;;;;;;;;;;8.89;100.00;97006.06;5066201;28;20024;-74
2024/03/17 08:08:21;;;;;;;;;;;;;;;8.99;100.00;97003.91;5065956;28;20325;-69
2024/03/17 08:10:50;;;;;;;;;;;;;;;9.07;100.00;97001.13;5066072;28;19945;-69
2024/03/17 08:13:16;;;;;;;;;;;;;;;9.16;100.00;97001.78;5065989;28;19934;-69
2024/03/17 08:15:43;;;;;;;;;;;;;;;9.29;100.00;97003.63;5066510;28;19934;-69
2024/03/17 08:18:09;;;;;;;;;;;;;;;9.37;100.00;96993.00;5065897;28;19934;-69
2024/03/17 08:20:39;;;;;;;;;;;;;;;9.43;100.00;96996.59;5065861;28;19935;-68
2024/03/17 08:23:05;;;;;;;;;;;;;;;9.53;100.00;96995.25;5065869;28;20145;-74
2024/03/17 08:25:34;;;;;;;;;;;;;;;9.72;100.00;96990.25;5065816;28;19935;-72
2024/03/17 08:28:01;;;;;;;;;;;;;;;9.87;100.00;96987.44;5065664;28;19961;-72
2024/03/17 08:30:27;;;;;;;;;;;;;;;10.04;100.00;96991.31;5066222;28;20180;-73
2024/03/17 08:32:52;;;;;;;;;;;;;;;10.17;100.00;96982.66;5065680;28;20127;-72
2024/03/17 08:35:18;;;;;;;;;;;;;;;10.30;100.00;96974.00;5065435;28;19974;-72
2024/03/17 08:37:45;;;;;;;;;;;;;;;10.38;100.00;96965.94;5065560;28;19992;-73
2024/03/17 08:40:11;;;;;;;;;;;;;;;10.46;100.00;96965.72;5065444;28;19933;-73
2024/03/17 08:42:37;;;;;;;;;;;;;;;10.56;100.00;96955.63;5065503;28;20276;-72
2024/03/17 08:45:04;;;;;;;;;;;;;;;10.62;100.00;96948.72;5065424;28;19940;-80
2024/03/17 08:47:29;;;;;;;;;;;;;;;10.67;100.00;96961.25;5065182;28;20224;-80
2024/03/17 08:49:55;;;;;;;;;;;;;;;10.71;100.00;96958.00;5065883;28;19946;-80
2024/03/17 08:52:21;;;;;;;;;;;;;;;10.76;100.00;96949.50;5065224;28;19942;-80
2024/03/17 08:54:47;;;;;;;;;;;;;;;10.82;100.00;96940.81;5065768;28;19936;-80
2024/03/17 08:57:13;;;;;;;;;;;;;;;10.82;100.00;96940.00;5065194;28;20127;-80
2024/03/17 08:59:39;;;;;;;;;;;;;;;10.82;100.00;96938.19;5065092;28;19943;-69
2024/03/17 09:02:06;;;;;;;;;;;;;;;10.74;100.00;96931.34;5065020;28;19965;-74
2024/03/17 09:04:32;;;;;;;;;;;;;;;10.66;100.00;96949.91;5065008;28;19939;-75
2024/03/17 09:07:00;;;;;;;;;;;;;;;10.64;100.00;96956.41;5065157;28;19949;-76
2024/03/17 09:09:26;;;;;;;;;;;;;;;10.66;100.00;96957.78;5064687;28;19971;-75
2024/03/17 09:11:52;;;;;;;;;;;;;;;10.66;100.00;96965.66;5063779;28;19936;-75
2024/03/17 09:14:18;;;;;;;;;;;;;;;10.68;100.00;96942.66;5064788;28;19934;-76
2024/03/17 09:16:44;;;;;;;;;;;;;;;10.83;100.00;96955.53;5065525;28;19939;-73
2024/03/17 09:19:10;;;;;;;;;;;;;;;10.99;100.00;96959.53;5065497;28;19964;-71
2024/03/17 09:21:39;;;;;;;;;;;;;;;11.02;100.00;96938.09;5064662;28;19938;-74
2024/03/17 09:24:05;;;;;;;;;;;;;;;11.02;100.00;96942.56;5064852;28;19932;-74
2024/03/17 09:26:31;;;;;;;;;;;;;;;11.04;100.00;96956.28;5064496;28;19944;-74
2024/03/17 09:28:57;;;;;;;;;;;;;;;11.10;100.00;96953.63;5064404;28;19953;-75
2024/03/17 09:31:22;;;;;;;;;;;;;;;11.14;100.00;96940.88;5064449;28;20132;-74
2024/03/17 09:33:48;;;;;;;;;;;;;;;11.16;100.00;96929.16;5064919;28;20252;-74
2024/03/17 09:36:14;;;;;;;;;;;;;;;11.17;100.00;96922.09;5064401;28;19985;-72
2024/03/17 09:38:40;;;;;;;;;;;;;;;11.23;100.00;96929.13;5064348;28;19942;-68
2024/03/17 09:41:06;;;;;;;;;;;;;;;11.36;100.00;96942.19;5064291;28;20004;-69
2024/03/17 09:43:33;;;;;;;;;;;;;;;11.44;100.00;96935.88;5065058;28;20093;-69
2024/03/17 09:45:59;;;;;;;;;;;;;;;11.52;100.00;96925.13;5064276;28;19944;-69
2024/03/17 09:48:28;;;;;;;;;;;;;;;11.52;100.00;96916.44;5064102;28;19948;-69
2024/03/17 09:50:54;;;;;;;;;;;;;;;11.58;100.00;96915.59;5064165;28;19938;-69
2024/03/17 09:53:26;;;;;;;;;;;;;;;11.70;100.00;96913.09;5064161;28;19933;-75
2024/03/17 09:55:55;;;;;;;;;;;;;;;11.81;100.00;96887.97;5064205;28;19948;-72
2024/03/17 09:58:21;;;;;;;;;;;;;;;11.98;100.00;96902.19;5064047;28;19943;-74
2024/03/17 10:00:47;;;;;;;;;;;;;;;12.33;100.00;96889.31;5064855;28;19944;-74
2024/03/17 10:03:31;;;;;;;;;;;;;;;12.67;100.00;96865.28;5079650;28;19938;-74
2024/03/17 10:06:00;;;;;;;;;;;;;;;12.85;100.00;96883.72;5064002;28;19940;-74
2024/03/17 10:08:26;;;;;;;;;;;;;;;12.85;99.71;96822.34;5064077;28;19978;-74
2024/03/17 10:10:53;;;;;;;;;;;;;;;12.80;100.00;96876.44;5064730;28;20207;-74
2024/03/17 10:13:19;;;;;;;;;;;;;;;12.94;100.00;96878.94;5063939;28;19938;-69
2024/03/17 10:15:48;;;;;;;;;;;;;;;12.99;100.00;96853.53;5063295;28;20030;-69
2024/03/17 10:18:22;;;;;;;;;;;;;;;13.05;100.00;96846.59;5063820;28;19960;-69
2024/03/17 10:20:52;;;;;;;;;;;;;;;13.23;100.00;96831.75;5063811;28;19934;-69
2024/03/17 10:23:19;;;;;;;;;;;;;;;13.39;100.00;96862.75;5064596;28;20115;-69
2024/03/17 10:25:45;;;;;;;;;;;;;;;13.54;100.00;96843.88;5064545;28;19939;-69
2024/03/17 10:28:11;;;;;;;;;;;;;;;13.67;100.00;96848.13;5063684;28;19963;-69
2024/03/17 10:30:39;;;;;;;;;;;;;;;13.58;95.28;96818.69;5064515;28;20110;-69
2024/03/17 10:33:07;;;;;;;;;;;;;;;13.54;97.70;96828.88;5063825;28;19937;-69
2024/03/17 10:35:41;;;;;;;;;;;;;;;13.58;95.28;96808.94;5063600;28;19970;-80
2024/03/17 10:38:09;;;;;;;;;;;;;;;13.71;94.06;96802.66;5064013;28;19947;-81
2024/03/17 10:40:38;;;;;;;;;;;;;;;13.85;96.60;96832.22;5064221;28;19943;-81
2024/03/17 10:43:05;;;;;;;;;;;;;;;13.97;98.90;96840.94;5062556;28;20229;-81
2024/03/17 10:45:35;;;;;;;;;;;;;;;13.95;94.21;96811.38;5064142;28;20112;-81
2024/03/17 10:48:03;;;;;;;;;;;;;;;13.79;92.77;96799.66;5064327;28;19939;-81
2024/03/17 10:50:30;;;;;;;;;;;;;;;13.62;97.72;96819.81;5063548;28;19940;-80
2024/03/17 10:52:58;;;;;;;;;;;;;;;13.44;96.57;96814.66;5063607;28;20230;-72
2024/03/17 10:55:25;;;;;;;;;;;;;;;13.16;100.00;96834.47;5063484;28;19933;-72
2024/03/17 10:57:52;;;;;;;;;;;;;;;12.93;97.64;96840.47;5063396;28;19936;-72
2024/03/17 11:00:19;;;;;;;;;;;;;;;12.74;96.85;96837.06;5063430;28;19950;-73
2024/03/17 11:02:45;;;;;;;;;;;;;;;12.60;100.00;96849.59;5063444;28;20130;-72
2024/03/17 11:05:16;;;;;;;;;;;;;;;12.65;100.00;96875.25;5063408;28;19933;-73
2024/03/17 11:07:46;;;;;;;;;;;;;;;12.75;100.00;96868.44;5063363;28;20226;-72
2024/03/17 11:10:26;;;;;;;;;;;;;;;12.84;100.00;96865.50;5064070;28;20227;-73
2024/03/17 11:12:56;;;;;;;;;;;;;;;12.93;100.00;96869.41;5063829;28;19940;-74
2024/03/17 11:15:25;;;;;;;;;;;;;;;12.99;100.00;96858.78;5063229;28;19939;-74
2024/03/17 11:17:52;;;;;;;;;;;;;;;13.08;100.00;96861.94;5063268;28;20216;-74
2024/03/17 11:20:24;;;;;;;;;;;;;;;13.19;100.00;96863.81;5063779;28;20131;-74
2024/03/17 11:22:52;;;;;;;;;;;;;;;13.31;96.71;96818.28;5061789;28;19951;-74
2024/03/17 11:25:38;;;;;;;;;;;;;;;13.29;99.71;96831.72;5063223;28;19946;-70
2024/03/17 11:28:10;;;;;;;;;;;;;;;13.30;98.03;96821.97;5066710;28;19948;-72
2024/03/17 11:30:47;;;;;;;;;;;;;;;13.38;100.00;96832.97;5067701;28;19939;-73
2024/03/17 11:33:38;;;;;;;;;;;;;;;13.48;99.77;96821.06;5067049;28;19941;-73
2024/03/17 11:36:22;;;;;;;;;;;;;;;13.66;100.00;96833.38;5066773;28;19951;-73
2024/03/17 11:38:54;;;;;;;;;;;;;;;13.78;95.74;96803.34;5067518;28;19952;-73
2024/03/17 11:41:32;;;;;;;;;;;;;;;13.79;96.67;96807.56;5066599;28;19936;-74
2024/03/17 11:44:36;;;;;;;;;;;;;;;13.78;98.59;96810.47;5066638;28;19938;-73
2024/03/17 11:47:03;;;;;;;;;;;;;;;13.66;96.58;96809.66;5005706;28;20230;-74
2024/03/17 11:49:29;;;;;;;;;;;;;;;13.50;91.78;96772.41;4989699;28;19953;-75
2024/03/17 11:51:56;;;;;;;;;;;;;;;13.47;96.87;96817.63;5033863;28;19942;-75
2024/03/17 11:54:22;;;;;;;;;;;;;;;13.48;95.00;96789.44;5067156;28;19944;-75
2024/03/17 11:56:49;;;;;;;;;;;;;;;13.57;94.22;96788.09;5066607;28;19959;-75
2024/03/17 11:59:17;;;;;;;;;;;;;;;13.59;95.40;96794.75;5067068;28;20214;-75
2024/03/17 12:01:44;;;;;;;;;;;;;;;13.69;97.00;96798.63;5066781;28;19936;-75
2024/03/17 12:04:11;;;;;;;;;;;;;;;13.76;90.93;96747.41;5066299;28;19936;-73
2024/03/17 12:06:37;;;;;;;;;;;;;;;13.79;88.06;96739.03;5066180;28;19941;-69
2024/03/17 12:09:21;;;;;;;;;;;;;;;13.75;88.95;96745.81;5065994;28;19963;-69
2024/03/17 12:12:07;;;;;;;;;;;;;;;13.75;93.30;96769.53;5066849;28;19941;-69
2024/03/17 12:14:33;;;;;;;;;;;;;;;13.69;91.20;96764.38;5065700;28;20108;-69
2024/03/17 12:17:03;;;;;;;;;;;;;;;13.65;90.64;96760.59;5066798;28;19946;-69
2024/03/17 12:19:30;;;;;;;;;;;;;;;13.67;95.16;96780.44;5065936;28;20129;-69
2024/03/17 12:21:56;;;;;;;;;;;;;;;13.62;90.90;96739.97;5065977;28;19937;-73
2024/03/17 12:24:23;;;;;;;;;;;;;;;13.53;87.62;96727.16;5065896;28;19942;-85
2024/03/17 12:26:50;;;;;;;;;;;;;;;13.49;91.37;96744.44;5065832;28;19938;-85
2024/03/17 12:29:36;;;;;;;;;;;;;;;13.48;90.70;96749.94;5024702;28;19972;-85
2024/03/17 12:32:08;;;;;;;;;;;;;;;13.44;89.39;96725.91;5024255;28;19928;-85
2024/03/17 12:34:34;;;;;;;;;;;;;;;13.42;88.18;96725.31;5024110;28;19969;-85
2024/03/17 12:37:00;;;;;;;;;;;;;;;13.48;92.62;96744.66;5024182;28;19994;-86
2024/03/17 12:39:30;;;;;;;;;;;;;;;13.55;89.44;96713.75;5023736;28;20264;-69
2024/03/17 12:42:16;;;;;;;;;;;;;;;13.63;87.21;96707.31;5024088;28;19938;-84
2024/03/17 12:44:55;;;;;;;;;;;;;;;13.66;86.18;96694.47;5024142;28;19944;-73
2024/03/17 12:47:25;;;;;;;;;;;;;;;13.76;89.70;96710.50;5023868;28;20039;-74